sensor_id;sensor_type;location;lat;lon;timestamp;temperature;humidity
2012;DHT22;1009;51.436;6.972;2022-09-03T00:01:30;18.90;88.90
2012;DHT22;1009;51.436;6.972;2022-09-03T00:04:02;18.90;88.70
2012;DHT22;1009;51.436;6.972;2022-09-03T00:06:35;18.90;89.10
2012;DHT22;1009;51.436;6.972;2022-09-03T00:09:11;18.90;89.70
2012;DHT22;1009;51.436;6.972;2022-09-03T00:11:50;18.90;89.80
2012;DHT22;1009;51.436;6.972;2022-09-03T00:14:20;18.90;89.50
2012;DHT22;1009;51.436;6.972;2022-09-03T00:16:51;18.90;89.50
2012;DHT22;1009;51.436;6.972;2022-09-03T00:19:23;18.80;90.00
2012;DHT22;1009;51.436;6.972;2022-09-03T00:21:55;18.80;90.00
2012;DHT22;1009;51.436;6.972;2022-09-03T00:24:27;18.80;90.00
2012;DHT22;1009;51.436;6.972;2022-09-03T00:26:59;18.80;90.20
2012;DHT22;1009;51.436;6.972;2022-09-03T00:29:31;18.80;90.20
2012;DHT22;1009;51.436;6.972;2022-09-03T00:32:03;18.80;90.30
2012;DHT22;1009;51.436;6.972;2022-09-03T00:34:35;18.90;90.30
2012;DHT22;1009;51.436;6.972;2022-09-03T00:37:06;18.80;90.10
2012;DHT22;1009;51.436;6.972;2022-09-03T00:39:37;18.80;90.30
2012;DHT22;1009;51.436;6.972;2022-09-03T00:42:24;18.80;90.40
2012;DHT22;1009;51.436;6.972;2022-09-03T00:45:04;18.80;90.30
2012;DHT22;1009;51.436;6.972;2022-09-03T00:47:41;18.80;90.50
2012;DHT22;1009;51.436;6.972;2022-09-03T00:50:19;18.80;90.50
2012;DHT22;1009;51.436;6.972;2022-09-03T00:52:56;18.80;90.40
2012;DHT22;1009;51.436;6.972;2022-09-03T00:55:33;18.70;90.30
2012;DHT22;1009;51.436;6.972;2022-09-03T00:58:21;18.70;90.70
2012;DHT22;1009;51.436;6.972;2022-09-03T01:00:51;18.70;90.70
2012;DHT22;1009;51.436;6.972;2022-09-03T01:03:24;18.70;90.60
2012;DHT22;1009;51.436;6.972;2022-09-03T01:06:13;18.70;91.00
2012;DHT22;1009;51.436;6.972;2022-09-03T01:08:54;18.60;90.70
2012;DHT22;1009;51.436;6.972;2022-09-03T01:11:35;18.70;90.80
2012;DHT22;1009;51.436;6.972;2022-09-03T01:14:14;18.70;90.70
2012;DHT22;1009;51.436;6.972;2022-09-03T01:16:47;18.60;91.10
2012;DHT22;1009;51.436;6.972;2022-09-03T01:19:34;18.60;91.00
2012;DHT22;1009;51.436;6.972;2022-09-03T01:22:18;18.60;91.00
2012;DHT22;1009;51.436;6.972;2022-09-03T01:25:05;18.70;90.80
2012;DHT22;1009;51.436;6.972;2022-09-03T01:27:47;18.60;91.10
2012;DHT22;1009;51.436;6.972;2022-09-03T01:30:20;18.60;91.00
2012;DHT22;1009;51.436;6.972;2022-09-03T01:32:53;18.70;91.10
2012;DHT22;1009;51.436;6.972;2022-09-03T01:35:29;18.70;91.20
2012;DHT22;1009;51.436;6.972;2022-09-03T01:38:10;18.60;91.00
2012;DHT22;1009;51.436;6.972;2022-09-03T01:40:45;18.60;91.20
2012;DHT22;1009;51.436;6.972;2022-09-03T01:43:27;18.70;91.10
2012;DHT22;1009;51.436;6.972;2022-09-03T01:46:01;18.70;91.50
2012;DHT22;1009;51.436;6.972;2022-09-03T01:48:39;18.70;91.20
2012;DHT22;1009;51.436;6.972;2022-09-03T01:51:16;18.70;91.20
2012;DHT22;1009;51.436;6.972;2022-09-03T01:59:50;18.60;91.30
2012;DHT22;1009;51.436;6.972;2022-09-03T02:02:21;18.60;91.60
2012;DHT22;1009;51.436;6.972;2022-09-03T02:04:58;18.60;91.40
2012;DHT22;1009;51.436;6.972;2022-09-03T02:07:29;18.60;91.50
2012;DHT22;1009;51.436;6.972;2022-09-03T02:09:58;18.60;91.50
2012;DHT22;1009;51.436;6.972;2022-09-03T02:12:25;18.70;91.40
2012;DHT22;1009;51.436;6.972;2022-09-03T02:14:58;18.70;91.30
2012;DHT22;1009;51.436;6.972;2022-09-03T02:17:26;18.60;91.60
2012;DHT22;1009;51.436;6.972;2022-09-03T02:19:54;18.70;91.60
2012;DHT22;1009;51.436;6.972;2022-09-03T02:22:21;18.60;91.70
2012;DHT22;1009;51.436;6.972;2022-09-03T02:24:47;18.60;91.60
2012;DHT22;1009;51.436;6.972;2022-09-03T02:27:15;18.60;91.90
2012;DHT22;1009;51.436;6.972;2022-09-03T02:29:42;18.60;91.90
2012;DHT22;1009;51.436;6.972;2022-09-03T02:32:11;18.60;91.70
2012;DHT22;1009;51.436;6.972;2022-09-03T02:34:40;18.60;91.90
2012;DHT22;1009;51.436;6.972;2022-09-03T02:37:12;18.60;92.10
2012;DHT22;1009;51.436;6.972;2022-09-03T02:39:39;18.60;92.20
2012;DHT22;1009;51.436;6.972;2022-09-03T02:42:05;18.60;92.80
2012;DHT22;1009;51.436;6.972;2022-09-03T02:44:34;18.60;93.60
2012;DHT22;1009;51.436;6.972;2022-09-03T02:47:04;18.60;94.30
2012;DHT22;1009;51.436;6.972;2022-09-03T02:49:31;18.50;94.10
2012;DHT22;1009;51.436;6.972;2022-09-03T02:52:02;18.50;94.30
2012;DHT22;1009;51.436;6.972;2022-09-03T02:54:31;18.50;94.50
2012;DHT22;1009;51.436;6.972;2022-09-03T02:57:01;18.40;94.70
2012;DHT22;1009;51.436;6.972;2022-09-03T02:59:28;18.40;95.20
2012;DHT22;1009;51.436;6.972;2022-09-03T03:01:54;18.30;95.70
2012;DHT22;1009;51.436;6.972;2022-09-03T03:04:21;18.20;95.50
2012;DHT22;1009;51.436;6.972;2022-09-03T03:06:48;18.20;95.70
2012;DHT22;1009;51.436;6.972;2022-09-03T03:09:17;18.20;95.90
2012;DHT22;1009;51.436;6.972;2022-09-03T03:11:43;18.10;95.90
2012;DHT22;1009;51.436;6.972;2022-09-03T03:14:11;18.10;96.20
2012;DHT22;1009;51.436;6.972;2022-09-03T03:16:38;18.10;96.60
2012;DHT22;1009;51.436;6.972;2022-09-03T03:19:04;18.00;96.80
2012;DHT22;1009;51.436;6.972;2022-09-03T03:21:31;18.00;97.00
2012;DHT22;1009;51.436;6.972;2022-09-03T03:24:00;18.00;97.80
2012;DHT22;1009;51.436;6.972;2022-09-03T03:26:28;18.00;99.20
2012;DHT22;1009;51.436;6.972;2022-09-03T03:28:56;18.00;98.90
2012;DHT22;1009;51.436;6.972;2022-09-03T03:31:24;17.90;98.70
2012;DHT22;1009;51.436;6.972;2022-09-03T03:33:52;18.00;99.30
2012;DHT22;1009;51.436;6.972;2022-09-03T03:36:20;17.90;99.90
2012;DHT22;1009;51.436;6.972;2022-09-03T03:38:47;17.90;99.90
2012;DHT22;1009;51.436;6.972;2022-09-03T03:41:15;17.80;99.90
2012;DHT22;1009;51.436;6.972;2022-09-03T03:43:44;17.80;99.90
2012;DHT22;1009;51.436;6.972;2022-09-03T03:46:11;17.80;99.90
2012;DHT22;1009;51.436;6.972;2022-09-03T03:48:39;17.80;99.90
2012;DHT22;1009;51.436;6.972;2022-09-03T03:51:08;17.80;99.90
2012;DHT22;1009;51.436;6.972;2022-09-03T03:53:36;17.70;99.90
2012;DHT22;1009;51.436;6.972;2022-09-03T03:56:05;17.70;99.90
2012;DHT22;1009;51.436;6.972;2022-09-03T03:58:32;17.60;99.90
2012;DHT22;1009;51.436;6.972;2022-09-03T04:01:05;17.60;99.90
2012;DHT22;1009;51.436;6.972;2022-09-03T04:03:32;17.60;99.90
2012;DHT22;1009;51.436;6.972;2022-09-03T04:05:59;17.40;99.90
2012;DHT22;1009;51.436;6.972;2022-09-03T04:08:28;17.30;99.90
2012;DHT22;1009;51.436;6.972;2022-09-03T04:10:59;17.40;99.90
2012;DHT22;1009;51.436;6.972;2022-09-03T04:13:28;17.30;99.90
2012;DHT22;1009;51.436;6.972;2022-09-03T04:15:59;17.20;99.90
2012;DHT22;1009;51.436;6.972;2022-09-03T04:18:28;17.20;99.90
2012;DHT22;1009;51.436;6.972;2022-09-03T04:20:58;17.20;99.90
2012;DHT22;1009;51.436;6.972;2022-09-03T04:23:29;17.20;99.90
2012;DHT22;1009;51.436;6.972;2022-09-03T04:25:55;17.20;99.90
2012;DHT22;1009;51.436;6.972;2022-09-03T04:28:22;17.20;99.90
2012;DHT22;1009;51.436;6.972;2022-09-03T04:30:49;17.10;99.90
2012;DHT22;1009;51.436;6.972;2022-09-03T04:33:16;17.10;99.90
2012;DHT22;1009;51.436;6.972;2022-09-03T04:35:44;17.00;99.90
2012;DHT22;1009;51.436;6.972;2022-09-03T04:38:11;17.00;99.90
2012;DHT22;1009;51.436;6.972;2022-09-03T04:40:38;17.00;99.90
2012;DHT22;1009;51.436;6.972;2022-09-03T04:43:04;16.90;99.90
2012;DHT22;1009;51.436;6.972;2022-09-03T04:45:31;16.90;99.90
2012;DHT22;1009;51.436;6.972;2022-09-03T04:47:58;16.90;99.90
2012;DHT22;1009;51.436;6.972;2022-09-03T04:50:27;16.90;99.90
2012;DHT22;1009;51.436;6.972;2022-09-03T04:53:00;16.80;99.90
2012;DHT22;1009;51.436;6.972;2022-09-03T04:55:27;16.70;99.90
2012;DHT22;1009;51.436;6.972;2022-09-03T04:57:54;16.70;99.90
2012;DHT22;1009;51.436;6.972;2022-09-03T05:00:21;16.70;99.90
2012;DHT22;1009;51.436;6.972;2022-09-03T05:02:47;16.70;99.90
2012;DHT22;1009;51.436;6.972;2022-09-03T05:05:16;16.70;99.90
2012;DHT22;1009;51.436;6.972;2022-09-03T05:07:43;16.60;99.90
2012;DHT22;1009;51.436;6.972;2022-09-03T05:10:13;16.50;99.90
2012;DHT22;1009;51.436;6.972;2022-09-03T05:12:45;16.50;99.90
2012;DHT22;1009;51.436;6.972;2022-09-03T05:15:12;16.40;99.90
2012;DHT22;1009;51.436;6.972;2022-09-03T05:17:39;16.30;99.90
2012;DHT22;1009;51.436;6.972;2022-09-03T05:20:07;16.30;99.90
2012;DHT22;1009;51.436;6.972;2022-09-03T05:22:34;16.10;99.90
2012;DHT22;1009;51.436;6.972;2022-09-03T05:25:01;16.10;99.90
2012;DHT22;1009;51.436;6.972;2022-09-03T05:27:30;16.00;99.90
2012;DHT22;1009;51.436;6.972;2022-09-03T05:29:57;16.00;99.90
2012;DHT22;1009;51.436;6.972;2022-09-03T05:32:23;15.90;99.90
2012;DHT22;1009;51.436;6.972;2022-09-03T05:34:53;15.80;99.90
2012;DHT22;1009;51.436;6.972;2022-09-03T05:37:19;15.90;99.90
2012;DHT22;1009;51.436;6.972;2022-09-03T05:39:46;15.90;99.90
2012;DHT22;1009;51.436;6.972;2022-09-03T05:42:13;15.90;99.90
2012;DHT22;1009;51.436;6.972;2022-09-03T05:44:41;15.90;99.90
2012;DHT22;1009;51.436;6.972;2022-09-03T05:47:08;15.80;99.90
2012;DHT22;1009;51.436;6.972;2022-09-03T05:49:35;15.80;99.90
2012;DHT22;1009;51.436;6.972;2022-09-03T05:52:02;15.80;99.90
2012;DHT22;1009;51.436;6.972;2022-09-03T05:54:29;15.90;99.90
2012;DHT22;1009;51.436;6.972;2022-09-03T05:56:56;16.00;99.90
2012;DHT22;1009;51.436;6.972;2022-09-03T05:59:23;16.10;99.90
2012;DHT22;1009;51.436;6.972;2022-09-03T06:01:51;16.10;99.90
2012;DHT22;1009;51.436;6.972;2022-09-03T06:04:18;16.20;99.90
2012;DHT22;1009;51.436;6.972;2022-09-03T06:06:46;16.30;99.90
2012;DHT22;1009;51.436;6.972;2022-09-03T06:09:15;16.40;99.90
2012;DHT22;1009;51.436;6.972;2022-09-03T06:11:44;16.50;99.90
2012;DHT22;1009;51.436;6.972;2022-09-03T06:14:12;16.60;99.90
2012;DHT22;1009;51.436;6.972;2022-09-03T06:16:41;16.70;99.90
2012;DHT22;1009;51.436;6.972;2022-09-03T06:19:11;16.90;99.90
2012;DHT22;1009;51.436;6.972;2022-09-03T06:21:40;17.00;99.90
2012;DHT22;1009;51.436;6.972;2022-09-03T06:24:09;17.10;99.90
2012;DHT22;1009;51.436;6.972;2022-09-03T06:26:36;17.30;99.90
2012;DHT22;1009;51.436;6.972;2022-09-03T06:29:03;17.50;99.90
2012;DHT22;1009;51.436;6.972;2022-09-03T06:31:30;17.60;99.90
2012;DHT22;1009;51.436;6.972;2022-09-03T06:33:57;17.80;99.90
2012;DHT22;1009;51.436;6.972;2022-09-03T06:36:25;17.90;99.90
2012;DHT22;1009;51.436;6.972;2022-09-03T06:38:54;18.00;99.90
2012;DHT22;1009;51.436;6.972;2022-09-03T06:41:23;18.10;99.90
2012;DHT22;1009;51.436;6.972;2022-09-03T06:43:52;18.30;99.90
2012;DHT22;1009;51.436;6.972;2022-09-03T06:46:20;18.40;99.90
2012;DHT22;1009;51.436;6.972;2022-09-03T06:48:48;18.50;99.90
2012;DHT22;1009;51.436;6.972;2022-09-03T06:51:17;18.60;99.90
2012;DHT22;1009;51.436;6.972;2022-09-03T06:53:47;18.70;99.90
2012;DHT22;1009;51.436;6.972;2022-09-03T06:56:16;18.80;99.90
2012;DHT22;1009;51.436;6.972;2022-09-03T06:58:44;18.90;99.90
2012;DHT22;1009;51.436;6.972;2022-09-03T07:01:12;19.00;99.90
2012;DHT22;1009;51.436;6.972;2022-09-03T07:03:42;19.10;99.90
2012;DHT22;1009;51.436;6.972;2022-09-03T07:06:10;19.20;99.90
2012;DHT22;1009;51.436;6.972;2022-09-03T07:08:37;19.20;99.90
2012;DHT22;1009;51.436;6.972;2022-09-03T07:11:09;19.30;99.90
2012;DHT22;1009;51.436;6.972;2022-09-03T07:13:36;19.50;99.90
2012;DHT22;1009;51.436;6.972;2022-09-03T07:16:06;19.60;99.90
2012;DHT22;1009;51.436;6.972;2022-09-03T07:18:34;19.80;99.90
2012;DHT22;1009;51.436;6.972;2022-09-03T07:21:03;19.90;99.90
2012;DHT22;1009;51.436;6.972;2022-09-03T07:23:31;20.10;99.90
2012;DHT22;1009;51.436;6.972;2022-09-03T07:25:59;20.20;99.90
2012;DHT22;1009;51.436;6.972;2022-09-03T07:28:29;20.40;99.90
2012;DHT22;1009;51.436;6.972;2022-09-03T07:31:01;20.50;99.90
2012;DHT22;1009;51.436;6.972;2022-09-03T07:33:28;20.60;99.90
2012;DHT22;1009;51.436;6.972;2022-09-03T07:35:55;20.70;99.90
2012;DHT22;1009;51.436;6.972;2022-09-03T07:38:27;20.80;99.90
2012;DHT22;1009;51.436;6.972;2022-09-03T07:40:56;20.90;99.90
2012;DHT22;1009;51.436;6.972;2022-09-03T07:43:24;21.00;99.90
2012;DHT22;1009;51.436;6.972;2022-09-03T07:45:52;21.10;99.90
2012;DHT22;1009;51.436;6.972;2022-09-03T07:48:20;21.30;99.90
2012;DHT22;1009;51.436;6.972;2022-09-03T07:50:47;21.50;99.90
2012;DHT22;1009;51.436;6.972;2022-09-03T07:53:14;21.50;99.90
2012;DHT22;1009;51.436;6.972;2022-09-03T07:55:41;21.70;99.90
2012;DHT22;1009;51.436;6.972;2022-09-03T07:58:08;21.80;99.90
2012;DHT22;1009;51.436;6.972;2022-09-03T08:00:36;21.90;99.90
2012;DHT22;1009;51.436;6.972;2022-09-03T08:03:05;22.00;99.90
2012;DHT22;1009;51.436;6.972;2022-09-03T08:05:34;22.10;99.90
2012;DHT22;1009;51.436;6.972;2022-09-03T08:08:01;22.10;99.90
2012;DHT22;1009;51.436;6.972;2022-09-03T08:10:28;22.20;99.90
2012;DHT22;1009;51.436;6.972;2022-09-03T08:12:57;22.30;99.90
2012;DHT22;1009;51.436;6.972;2022-09-03T08:15:24;22.40;99.90
2012;DHT22;1009;51.436;6.972;2022-09-03T08:17:51;22.50;99.90
2012;DHT22;1009;51.436;6.972;2022-09-03T08:20:19;22.50;99.90
2012;DHT22;1009;51.436;6.972;2022-09-03T08:22:47;22.60;99.90
2012;DHT22;1009;51.436;6.972;2022-09-03T08:25:14;22.70;99.00
2012;DHT22;1009;51.436;6.972;2022-09-03T08:27:40;22.80;99.20
2012;DHT22;1009;51.436;6.972;2022-09-03T08:30:08;23.00;99.70
2012;DHT22;1009;51.436;6.972;2022-09-03T08:32:36;23.10;98.90
2012;DHT22;1009;51.436;6.972;2022-09-03T08:35:03;23.10;97.50
2012;DHT22;1009;51.436;6.972;2022-09-03T08:37:32;23.20;98.10
2012;DHT22;1009;51.436;6.972;2022-09-03T08:39:58;23.30;97.30
2012;DHT22;1009;51.436;6.972;2022-09-03T08:42:38;23.30;96.70
2012;DHT22;1009;51.436;6.972;2022-09-03T08:45:14;23.40;97.40
2012;DHT22;1009;51.436;6.972;2022-09-03T08:47:44;23.40;95.80
2012;DHT22;1009;51.436;6.972;2022-09-03T08:50:18;23.40;96.00
2012;DHT22;1009;51.436;6.972;2022-09-03T08:52:50;23.50;95.30
2012;DHT22;1009;51.436;6.972;2022-09-03T08:55:22;23.50;94.90
2012;DHT22;1009;51.436;6.972;2022-09-03T08:57:56;23.60;94.90
2012;DHT22;1009;51.436;6.972;2022-09-03T09:00:24;23.80;95.90
2012;DHT22;1009;51.436;6.972;2022-09-03T09:03:06;23.80;94.70
2012;DHT22;1009;51.436;6.972;2022-09-03T09:05:43;23.90;94.10
2012;DHT22;1009;51.436;6.972;2022-09-03T09:08:19;23.90;94.50
2012;DHT22;1009;51.436;6.972;2022-09-03T09:10:53;23.90;92.90
2012;DHT22;1009;51.436;6.972;2022-09-03T09:13:26;23.90;93.50
2012;DHT22;1009;51.436;6.972;2022-09-03T09:16:02;24.00;94.20
2012;DHT22;1009;51.436;6.972;2022-09-03T09:18:40;23.90;92.70
2012;DHT22;1009;51.436;6.972;2022-09-03T09:21:13;23.90;93.00
2012;DHT22;1009;51.436;6.972;2022-09-03T09:23:45;24.10;93.60
2012;DHT22;1009;51.436;6.972;2022-09-03T09:26:14;24.20;94.00
2012;DHT22;1009;51.436;6.972;2022-09-03T09:28:44;24.40;92.30
2012;DHT22;1009;51.436;6.972;2022-09-03T09:31:14;24.60;92.10
2012;DHT22;1009;51.436;6.972;2022-09-03T09:33:43;24.90;91.70
2012;DHT22;1009;51.436;6.972;2022-09-03T09:36:13;24.90;90.90
2012;DHT22;1009;51.436;6.972;2022-09-03T09:38:43;24.80;91.10
2012;DHT22;1009;51.436;6.972;2022-09-03T09:41:11;25.00;91.30
2012;DHT22;1009;51.436;6.972;2022-09-03T09:43:38;24.90;90.70
2012;DHT22;1009;51.436;6.972;2022-09-03T09:46:08;24.70;90.20
2012;DHT22;1009;51.436;6.972;2022-09-03T09:48:39;24.50;90.70
2012;DHT22;1009;51.436;6.972;2022-09-03T09:51:12;24.50;90.60
2012;DHT22;1009;51.436;6.972;2022-09-03T09:53:41;24.40;90.70
2012;DHT22;1009;51.436;6.972;2022-09-03T09:56:19;24.30;91.30
2012;DHT22;1009;51.436;6.972;2022-09-03T09:58:46;24.30;91.20
2012;DHT22;1009;51.436;6.972;2022-09-03T10:01:17;24.30;90.70
2012;DHT22;1009;51.436;6.972;2022-09-03T10:03:52;24.20;90.90
2012;DHT22;1009;51.436;6.972;2022-09-03T10:06:23;24.20;91.40
2012;DHT22;1009;51.436;6.972;2022-09-03T10:09:10;24.20;91.80
2012;DHT22;1009;51.436;6.972;2022-09-03T10:11:40;24.20;91.50
2012;DHT22;1009;51.436;6.972;2022-09-03T10:14:15;24.20;91.70
2012;DHT22;1009;51.436;6.972;2022-09-03T10:16:48;24.30;93.00
2012;DHT22;1009;51.436;6.972;2022-09-03T10:19:17;24.70;91.10
2012;DHT22;1009;51.436;6.972;2022-09-03T10:21:50;24.90;91.00
2012;DHT22;1009;51.436;6.972;2022-09-03T10:24:31;25.20;90.50
2012;DHT22;1009;51.436;6.972;2022-09-03T10:27:05;25.40;89.00
2012;DHT22;1009;51.436;6.972;2022-09-03T10:29:32;25.60;90.30
2012;DHT22;1009;51.436;6.972;2022-09-03T10:32:26;25.70;88.50
2012;DHT22;1009;51.436;6.972;2022-09-03T10:35:04;25.50;88.00
2012;DHT22;1009;51.436;6.972;2022-09-03T10:37:40;25.70;90.00
2012;DHT22;1009;51.436;6.972;2022-09-03T10:40:19;26.00;89.10
2012;DHT22;1009;51.436;6.972;2022-09-03T10:43:00;26.30;88.00
2012;DHT22;1009;51.436;6.972;2022-09-03T10:45:34;26.30;88.50
2012;DHT22;1009;51.436;6.972;2022-09-03T10:48:34;26.30;89.10
2012;DHT22;1009;51.436;6.972;2022-09-03T10:51:05;26.50;91.10
2012;DHT22;1009;51.436;6.972;2022-09-03T10:53:50;26.30;89.50
2012;DHT22;1009;51.436;6.972;2022-09-03T10:56:30;26.00;89.50
2012;DHT22;1009;51.436;6.972;2022-09-03T10:59:20;25.70;89.70
2012;DHT22;1009;51.436;6.972;2022-09-03T11:01:57;25.50;90.50
2012;DHT22;1009;51.436;6.972;2022-09-03T11:04:27;25.20;90.30
2012;DHT22;1009;51.436;6.972;2022-09-03T11:07:01;25.10;90.80
2012;DHT22;1009;51.436;6.972;2022-09-03T11:09:34;25.40;90.90
2012;DHT22;1009;51.436;6.972;2022-09-03T11:12:07;25.50;90.60
2012;DHT22;1009;51.436;6.972;2022-09-03T11:14:38;25.90;90.40
2012;DHT22;1009;51.436;6.972;2022-09-03T11:17:08;25.80;90.10
2012;DHT22;1009;51.436;6.972;2022-09-03T11:19:41;25.50;89.60
2012;DHT22;1009;51.436;6.972;2022-09-03T11:22:13;25.30;90.90
2012;DHT22;1009;51.436;6.972;2022-09-03T11:28:15;25.20;90.50
2012;DHT22;1009;51.436;6.972;2022-09-03T11:30:57;25.10;91.60
2012;DHT22;1009;51.436;6.972;2022-09-03T11:33:28;25.20;91.70
2012;DHT22;1009;51.436;6.972;2022-09-03T11:35:58;25.30;91.40
2012;DHT22;1009;51.436;6.972;2022-09-03T11:38:27;25.50;91.20
2012;DHT22;1009;51.436;6.972;2022-09-03T11:41:02;25.70;91.40
2012;DHT22;1009;51.436;6.972;2022-09-03T11:43:32;25.60;91.30
2012;DHT22;1009;51.436;6.972;2022-09-03T11:46:09;25.50;89.30
2012;DHT22;1009;51.436;6.972;2022-09-03T11:48:42;25.80;91.90
2012;DHT22;1009;51.436;6.972;2022-09-03T11:51:18;26.20;91.50
2012;DHT22;1009;51.436;6.972;2022-09-03T11:53:54;26.00;88.70
2012;DHT22;1009;51.436;6.972;2022-09-03T11:56:21;26.10;88.20
2012;DHT22;1009;51.436;6.972;2022-09-03T11:59:04;26.20;89.00
2012;DHT22;1009;51.436;6.972;2022-09-03T12:01:32;26.50;88.50
2012;DHT22;1009;51.436;6.972;2022-09-03T12:04:02;26.50;89.50
2012;DHT22;1009;51.436;6.972;2022-09-03T12:06:45;26.50;87.80
2012;DHT22;1009;51.436;6.972;2022-09-03T12:09:41;26.80;88.80
2012;DHT22;1009;51.436;6.972;2022-09-03T12:12:28;26.80;87.80
2012;DHT22;1009;51.436;6.972;2022-09-03T12:15:03;26.80;87.40
2012;DHT22;1009;51.436;6.972;2022-09-03T12:17:35;26.80;86.80
2012;DHT22;1009;51.436;6.972;2022-09-03T12:20:10;26.70;87.50
2012;DHT22;1009;51.436;6.972;2022-09-03T12:22:38;26.80;86.10
2012;DHT22;1009;51.436;6.972;2022-09-03T12:25:11;27.00;84.70
2012;DHT22;1009;51.436;6.972;2022-09-03T12:27:40;26.70;84.60
2012;DHT22;1009;51.436;6.972;2022-09-03T12:30:16;26.60;88.30
2012;DHT22;1009;51.436;6.972;2022-09-03T12:32:44;26.80;86.70
2012;DHT22;1009;51.436;6.972;2022-09-03T12:35:13;27.00;89.30
2012;DHT22;1009;51.436;6.972;2022-09-03T12:37:41;27.10;83.70
2012;DHT22;1009;51.436;6.972;2022-09-03T12:40:16;27.10;85.90
2012;DHT22;1009;51.436;6.972;2022-09-03T12:42:46;27.00;83.40
2012;DHT22;1009;51.436;6.972;2022-09-03T12:45:18;27.10;84.10
2012;DHT22;1009;51.436;6.972;2022-09-03T12:47:45;27.50;85.30
2012;DHT22;1009;51.436;6.972;2022-09-03T12:50:14;28.00;81.90
2012;DHT22;1009;51.436;6.972;2022-09-03T12:52:43;27.90;83.30
2012;DHT22;1009;51.436;6.972;2022-09-03T12:55:23;27.60;81.90
2012;DHT22;1009;51.436;6.972;2022-09-03T12:57:54;27.20;83.60
2012;DHT22;1009;51.436;6.972;2022-09-03T13:00:28;27.30;83.00
2012;DHT22;1009;51.436;6.972;2022-09-03T13:02:59;27.30;83.70
2012;DHT22;1009;51.436;6.972;2022-09-03T13:05:32;27.10;84.00
2012;DHT22;1009;51.436;6.972;2022-09-03T13:08:01;27.30;84.80
2012;DHT22;1009;51.436;6.972;2022-09-03T13:10:31;27.60;85.90
2012;DHT22;1009;51.436;6.972;2022-09-03T13:13:01;27.80;83.70
2012;DHT22;1009;51.436;6.972;2022-09-03T13:15:29;28.10;83.80
2012;DHT22;1009;51.436;6.972;2022-09-03T13:18:18;28.40;83.20
2012;DHT22;1009;51.436;6.972;2022-09-03T13:20:59;28.50;80.30
2012;DHT22;1009;51.436;6.972;2022-09-03T13:23:40;28.30;81.90
2012;DHT22;1009;51.436;6.972;2022-09-03T13:26:20;28.20;82.20
2012;DHT22;1009;51.436;6.972;2022-09-03T13:29:01;27.70;81.60
2012;DHT22;1009;51.436;6.972;2022-09-03T13:31:39;27.50;83.70
2012;DHT22;1009;51.436;6.972;2022-09-03T13:34:12;27.90;84.00
2012;DHT22;1009;51.436;6.972;2022-09-03T13:36:44;27.80;82.00
2012;DHT22;1009;51.436;6.972;2022-09-03T13:39:23;27.50;82.20
2012;DHT22;1009;51.436;6.972;2022-09-03T13:41:54;27.10;84.30
2012;DHT22;1009;51.436;6.972;2022-09-03T13:44:32;26.70;84.70
2012;DHT22;1009;51.436;6.972;2022-09-03T13:47:08;26.30;86.60
2012;DHT22;1009;51.436;6.972;2022-09-03T13:49:42;26.30;87.30
2012;DHT22;1009;51.436;6.972;2022-09-03T13:52:33;26.20;87.90
2012;DHT22;1009;51.436;6.972;2022-09-03T13:55:08;26.20;88.00
2012;DHT22;1009;51.436;6.972;2022-09-03T13:57:46;26.00;87.40
2012;DHT22;1009;51.436;6.972;2022-09-03T14:00:22;25.90;89.30
2012;DHT22;1009;51.436;6.972;2022-09-03T14:02:53;25.90;90.80
2012;DHT22;1009;51.436;6.972;2022-09-03T14:05:44;26.10;90.00
2012;DHT22;1009;51.436;6.972;2022-09-03T14:08:21;26.50;90.30
2012;DHT22;1009;51.436;6.972;2022-09-03T14:10:54;27.00;89.60
2012;DHT22;1009;51.436;6.972;2022-09-03T14:13:30;27.50;89.10
2012;DHT22;1009;51.436;6.972;2022-09-03T14:16:06;27.80;87.50
2012;DHT22;1009;51.436;6.972;2022-09-03T14:18:43;28.00;87.40
2012;DHT22;1009;51.436;6.972;2022-09-03T14:21:17;27.90;85.40
2012;DHT22;1009;51.436;6.972;2022-09-03T14:23:50;27.90;85.00
2012;DHT22;1009;51.436;6.972;2022-09-03T14:26:23;27.80;85.80
2012;DHT22;1009;51.436;6.972;2022-09-03T14:28:58;27.90;87.60
2012;DHT22;1009;51.436;6.972;2022-09-03T14:31:40;28.00;86.70
2012;DHT22;1009;51.436;6.972;2022-09-03T14:34:22;28.00;86.30
2012;DHT22;1009;51.436;6.972;2022-09-03T14:36:55;27.40;87.00
2012;DHT22;1009;51.436;6.972;2022-09-03T14:39:32;27.30;88.50
2012;DHT22;1009;51.436;6.972;2022-09-03T14:42:29;27.50;89.50
2012;DHT22;1009;51.436;6.972;2022-09-03T14:45:14;27.30;87.70
2012;DHT22;1009;51.436;6.972;2022-09-03T14:47:59;27.10;91.30
2012;DHT22;1009;51.436;6.972;2022-09-03T14:50:43;27.00;90.70
2012;DHT22;1009;51.436;6.972;2022-09-03T14:53:52;26.80;91.20
2012;DHT22;1009;51.436;6.972;2022-09-03T14:56:35;26.80;91.80
2012;DHT22;1009;51.436;6.972;2022-09-03T14:59:22;26.80;93.10
2012;DHT22;1009;51.436;6.972;2022-09-03T15:02:11;26.60;92.10
2012;DHT22;1009;51.436;6.972;2022-09-03T15:04:50;26.60;92.20
2012;DHT22;1009;51.436;6.972;2022-09-03T15:07:29;26.50;91.90
2012;DHT22;1009;51.436;6.972;2022-09-03T15:10:05;26.40;92.50
2012;DHT22;1009;51.436;6.972;2022-09-03T15:12:40;26.40;92.50
2012;DHT22;1009;51.436;6.972;2022-09-03T15:15:13;26.50;92.10
2012;DHT22;1009;51.436;6.972;2022-09-03T15:17:54;26.50;93.70
2012;DHT22;1009;51.436;6.972;2022-09-03T15:20:31;26.50;92.60
2012;DHT22;1009;51.436;6.972;2022-09-03T15:23:22;26.50;94.20
2012;DHT22;1009;51.436;6.972;2022-09-03T15:26:17;26.50;92.90
2012;DHT22;1009;51.436;6.972;2022-09-03T15:31:54;26.30;93.50
2012;DHT22;1009;51.436;6.972;2022-09-03T15:34:44;26.30;93.50
2012;DHT22;1009;51.436;6.972;2022-09-03T15:37:20;26.30;94.20
2012;DHT22;1009;51.436;6.972;2022-09-03T15:40:00;26.40;93.40
2012;DHT22;1009;51.436;6.972;2022-09-03T15:42:29;26.40;93.50
2012;DHT22;1009;51.436;6.972;2022-09-03T15:45:04;26.40;94.40
2012;DHT22;1009;51.436;6.972;2022-09-03T15:47:39;26.40;93.50
2012;DHT22;1009;51.436;6.972;2022-09-03T15:50:15;26.30;93.50
2012;DHT22;1009;51.436;6.972;2022-09-03T15:52:53;26.30;93.60
2012;DHT22;1009;51.436;6.972;2022-09-03T15:55:31;26.30;93.50
2012;DHT22;1009;51.436;6.972;2022-09-03T15:58:00;26.20;93.30
2012;DHT22;1009;51.436;6.972;2022-09-03T16:00:44;26.20;93.50
2012;DHT22;1009;51.436;6.972;2022-09-03T16:03:19;26.20;93.50
2012;DHT22;1009;51.436;6.972;2022-09-03T16:05:49;26.10;93.50
2012;DHT22;1009;51.436;6.972;2022-09-03T16:08:21;26.00;93.40
2012;DHT22;1009;51.436;6.972;2022-09-03T16:10:58;26.00;93.60
2012;DHT22;1009;51.436;6.972;2022-09-03T16:13:45;26.10;94.50
2012;DHT22;1009;51.436;6.972;2022-09-03T16:16:21;26.10;93.80
2012;DHT22;1009;51.436;6.972;2022-09-03T16:18:56;26.10;93.90
2012;DHT22;1009;51.436;6.972;2022-09-03T16:21:29;26.10;94.40
2012;DHT22;1009;51.436;6.972;2022-09-03T16:24:01;26.00;94.30
2012;DHT22;1009;51.436;6.972;2022-09-03T16:26:41;26.00;94.00
2012;DHT22;1009;51.436;6.972;2022-09-03T16:29:15;26.00;93.70
2012;DHT22;1009;51.436;6.972;2022-09-03T16:31:54;26.00;93.60
2012;DHT22;1009;51.436;6.972;2022-09-03T16:34:30;26.00;93.40
2012;DHT22;1009;51.436;6.972;2022-09-03T16:37:07;26.00;94.10
2012;DHT22;1009;51.436;6.972;2022-09-03T16:39:47;25.90;94.90
2012;DHT22;1009;51.436;6.972;2022-09-03T16:42:25;25.80;96.00
2012;DHT22;1009;51.436;6.972;2022-09-03T16:45:01;25.70;96.60
2012;DHT22;1009;51.436;6.972;2022-09-03T16:47:38;25.60;97.20
2012;DHT22;1009;51.436;6.972;2022-09-03T16:50:23;25.40;97.80